sensor_id;sensor_type;location;lat;lon;timestamp;pressure;altitude;pressure_sealevel;temperature;humidity
19576;BME280;41589;51.196;7.074;2023-05-02T00:00:00;99185.81;;;12.97;64.13
19576;BME280;41589;51.196;7.074;2023-05-02T00:05:01;99184.28;;;12.87;64.01
19576;BME280;41589;51.196;7.074;2023-05-02T00:10:01;99174.56;;;12.79;64.20
19576;BME280;41589;51.196;7.074;2023-05-02T00:15:02;99176.75;;;12.84;64.11
19576;BME280;41589;51.196;7.074;2023-05-02T00:20:02;99177.56;;;12.75;64.33
19576;BME280;41589;51.196;7.074;2023-05-02T00:25:05;99187.22;;;12.59;64.67
19576;BME280;41589;51.196;7.074;2023-05-02T00:30:06;99179.06;;;12.43;65.03
19576;BME280;41589;51.196;7.074;2023-05-02T00:35:07;99179.09;;;12.25;65.72
19576;BME280;41589;51.196;7.074;2023-05-02T00:40:08;99197.16;;;12.18;66.30
19576;BME280;41589;51.196;7.074;2023-05-02T00:45:08;99201.38;;;11.95;67.53
19576;BME280;41589;51.196;7.074;2023-05-02T00:50:09;99213.44;;;11.96;68.26
19576;BME280;41589;51.196;7.074;2023-05-02T00:55:10;99200.28;;;12.02;68.38
19576;BME280;41589;51.196;7.074;2023-05-02T01:00:11;99214.38;;;12.11;68.38
19576;BME280;41589;51.196;7.074;2023-05-02T01:12:00;99211.41;;;12.05;69.75
19576;BME280;41589;51.196;7.074;2023-05-02T01:17:06;99211.41;;;12.14;69.05
19576;BME280;41589;51.196;7.074;2023-05-02T01:22:10;99224.41;;;12.03;69.61
19576;BME280;41589;51.196;7.074;2023-05-02T01:32:20;99220.81;;;11.93;69.58
19576;BME280;41589;51.196;7.074;2023-05-02T01:37:23;99229.44;;;11.90;69.69
19576;BME280;41589;51.196;7.074;2023-05-02T01:42:25;99233.53;;;11.89;70.13
19576;BME280;41589;51.196;7.074;2023-05-02T01:47:28;99243.22;;;11.88;69.94
19576;BME280;41589;51.196;7.074;2023-05-02T01:52:30;99246.38;;;11.90;69.78
19576;BME280;41589;51.196;7.074;2023-05-02T01:57:31;99248.53;;;11.95;69.84
19576;BME280;41589;51.196;7.074;2023-05-02T02:02:32;99260.47;;;11.90;70.18
19576;BME280;41589;51.196;7.074;2023-05-02T02:07:37;99263.41;;;11.68;70.89
19576;BME280;41589;51.196;7.074;2023-05-02T02:12:44;99275.91;;;11.48;72.39
19576;BME280;41589;51.196;7.074;2023-05-02T02:18:00;99279.53;;;11.58;72.44
19576;BME280;41589;51.196;7.074;2023-05-02T02:23:05;99277.97;;;11.57;72.95
19576;BME280;41589;51.196;7.074;2023-05-02T02:28:14;99292.69;;;11.61;73.18
19576;BME280;41589;51.196;7.074;2023-05-02T02:33:23;99287.34;;;11.63;72.77
19576;BME280;41589;51.196;7.074;2023-05-02T02:38:33;99284.19;;;11.52;73.95
19576;BME280;41589;51.196;7.074;2023-05-02T02:43:46;99290.94;;;11.54;73.81
19576;BME280;41589;51.196;7.074;2023-05-02T02:54:32;99293.03;;;11.81;73.21
19576;BME280;41589;51.196;7.074;2023-05-02T02:59:41;99298.06;;;11.77;73.06
19576;BME280;41589;51.196;7.074;2023-05-02T03:04:45;99309.16;;;11.72;73.57
19576;BME280;41589;51.196;7.074;2023-05-02T03:09:48;99320.66;;;11.86;73.40
19576;BME280;41589;51.196;7.074;2023-05-02T03:20:21;99317.47;;;11.84;73.46
19576;BME280;41589;51.196;7.074;2023-05-02T03:25:23;99331.59;;;11.84;73.43
19576;BME280;41589;51.196;7.074;2023-05-02T03:30:30;99340.19;;;11.72;73.69
19576;BME280;41589;51.196;7.074;2023-05-02T03:35:37;99329.41;;;11.89;73.43
19576;BME280;41589;51.196;7.074;2023-05-02T03:40:42;99335.22;;;11.94;73.33
19576;BME280;41589;51.196;7.074;2023-05-02T03:45:45;99334.75;;;12.05;73.34
19576;BME280;41589;51.196;7.074;2023-05-02T03:50:46;99337.75;;;12.10;72.53
19576;BME280;41589;51.196;7.074;2023-05-02T03:55:51;99341.78;;;11.82;73.08
19576;BME280;41589;51.196;7.074;2023-05-02T04:01:13;99337.88;;;11.89;73.37
19576;BME280;41589;51.196;7.074;2023-05-02T04:06:21;99351.06;;;12.01;73.30
19576;BME280;41589;51.196;7.074;2023-05-02T04:11:29;99348.41;;;11.97;73.22
19576;BME280;41589;51.196;7.074;2023-05-02T04:16:37;99363.66;;;12.18;72.93
19576;BME280;41589;51.196;7.074;2023-05-02T04:21:44;99350.44;;;12.15;72.58
19576;BME280;41589;51.196;7.074;2023-05-02T04:26:48;99364.88;;;12.17;72.54
19576;BME280;41589;51.196;7.074;2023-05-02T04:32:03;99357.03;;;12.12;72.63
19576;BME280;41589;51.196;7.074;2023-05-02T04:37:09;99374.13;;;12.08;72.87
19576;BME280;41589;51.196;7.074;2023-05-02T04:42:14;99374.59;;;12.25;72.48
19576;BME280;41589;51.196;7.074;2023-05-02T04:47:29;99371.16;;;12.12;71.98
19576;BME280;41589;51.196;7.074;2023-05-02T04:52:30;99388.84;;;12.03;72.40
19576;BME280;41589;51.196;7.074;2023-05-02T04:57:33;99407.38;;;12.23;72.27
19576;BME280;41589;51.196;7.074;2023-05-02T05:02:36;99425.88;;;12.24;71.85
19576;BME280;41589;51.196;7.074;2023-05-02T05:07:42;99429.66;;;12.21;71.94
19576;BME280;41589;51.196;7.074;2023-05-02T05:12:48;99431.97;;;12.13;72.33
19576;BME280;41589;51.196;7.074;2023-05-02T05:17:50;99438.25;;;12.26;71.76
19576;BME280;41589;51.196;7.074;2023-05-02T05:22:53;99436.25;;;12.36;71.17
19576;BME280;41589;51.196;7.074;2023-05-02T05:27:56;99448.31;;;12.18;72.44
19576;BME280;41589;51.196;7.074;2023-05-02T05:32:58;99450.63;;;12.10;72.50
19576;BME280;41589;51.196;7.074;2023-05-02T05:37:59;99454.81;;;11.97;73.05
19576;BME280;41589;51.196;7.074;2023-05-02T05:43:03;99467.88;;;12.12;73.28
19576;BME280;41589;51.196;7.074;2023-05-02T05:48:08;99468.06;;;12.18;73.30
19576;BME280;41589;51.196;7.074;2023-05-02T05:53:15;99472.22;;;12.04;73.80
19576;BME280;41589;51.196;7.074;2023-05-02T05:58:20;99479.59;;;12.02;74.60
19576;BME280;41589;51.196;7.074;2023-05-02T06:03:24;99478.28;;;11.94;75.20
19576;BME280;41589;51.196;7.074;2023-05-02T06:08:28;99492.03;;;11.82;75.93
19576;BME280;41589;51.196;7.074;2023-05-02T06:13:32;99487.06;;;11.86;76.33
19576;BME280;41589;51.196;7.074;2023-05-02T06:18:33;99493.06;;;11.67;76.71
19576;BME280;41589;51.196;7.074;2023-05-02T06:23:34;99508.84;;;11.86;76.29
19576;BME280;41589;51.196;7.074;2023-05-02T06:28:35;99511.97;;;11.88;76.34
19576;BME280;41589;51.196;7.074;2023-05-02T06:33:35;99513.66;;;11.85;75.35
19576;BME280;41589;51.196;7.074;2023-05-02T06:38:39;99528.97;;;11.75;75.85
19576;BME280;41589;51.196;7.074;2023-05-02T06:43:45;99545.88;;;11.44;77.05
19576;BME280;41589;51.196;7.074;2023-05-02T06:48:46;99553.25;;;11.51;75.26
19576;BME280;41589;51.196;7.074;2023-05-02T06:54:17;99560.66;;;11.57;74.48
19576;BME280;41589;51.196;7.074;2023-05-02T06:59:18;99563.22;;;11.65;74.31
19576;BME280;41589;51.196;7.074;2023-05-02T07:04:28;99574.63;;;11.61;73.02
19576;BME280;41589;51.196;7.074;2023-05-02T07:09:59;99584.19;;;11.64;73.10
19576;BME280;41589;51.196;7.074;2023-05-02T07:15:07;99581.19;;;11.80;72.28
19576;BME280;41589;51.196;7.074;2023-05-02T07:20:09;99594.16;;;11.99;71.47
19576;BME280;41589;51.196;7.074;2023-05-02T07:25:10;99594.38;;;12.14;71.98
19576;BME280;41589;51.196;7.074;2023-05-02T07:30:12;99595.72;;;12.31;70.60
19576;BME280;41589;51.196;7.074;2023-05-02T07:35:12;99608.06;;;12.47;68.95
19576;BME280;41589;51.196;7.074;2023-05-02T07:40:13;99619.09;;;12.63;68.70
19576;BME280;41589;51.196;7.074;2023-05-02T07:45:14;99611.56;;;12.69;67.88
19576;BME280;41589;51.196;7.074;2023-05-02T07:50:17;99620.97;;;12.57;67.84
19576;BME280;41589;51.196;7.074;2023-05-02T07:55:18;99628.16;;;12.58;66.71
19576;BME280;41589;51.196;7.074;2023-05-02T08:00:19;99635.13;;;12.66;66.17
19576;BME280;41589;51.196;7.074;2023-05-02T08:05:20;99633.81;;;12.58;66.40
19576;BME280;41589;51.196;7.074;2023-05-02T08:10:20;99642.25;;;12.27;66.21
19576;BME280;41589;51.196;7.074;2023-05-02T08:15:26;99646.50;;;12.22;66.71
19576;BME280;41589;51.196;7.074;2023-05-02T08:20:29;99644.03;;;12.33;66.58
19576;BME280;41589;51.196;7.074;2023-05-02T08:25:30;99660.69;;;12.09;66.79
19576;BME280;41589;51.196;7.074;2023-05-02T08:30:57;99671.19;;;12.09;67.36
19576;BME280;41589;51.196;7.074;2023-05-02T08:36:09;99682.88;;;11.98;66.03
19576;BME280;41589;51.196;7.074;2023-05-02T08:41:30;99694.72;;;11.71;65.53
19576;BME280;41589;51.196;7.074;2023-05-02T08:47:04;99698.50;;;11.43;65.56
19576;BME280;41589;51.196;7.074;2023-05-02T08:52:09;99701.34;;;11.43;66.13
19576;BME280;41589;51.196;7.074;2023-05-02T09:02:55;99717.59;;;11.73;65.25
19576;BME280;41589;51.196;7.074;2023-05-02T09:08:47;99728.78;;;11.77;65.25
19576;BME280;41589;51.196;7.074;2023-05-02T09:14:00;99737.25;;;11.99;65.80
19576;BME280;41589;51.196;7.074;2023-05-02T09:19:03;99732.81;;;12.10;64.41
19576;BME280;41589;51.196;7.074;2023-05-02T09:24:30;99744.28;;;12.16;62.75
19576;BME280;41589;51.196;7.074;2023-05-02T09:30:23;99740.25;;;12.04;62.66
19576;BME280;41589;51.196;7.074;2023-05-02T09:35:27;99748.88;;;12.23;62.63
19576;BME280;41589;51.196;7.074;2023-05-02T09:40:54;99756.50;;;12.13;61.61
19576;BME280;41589;51.196;7.074;2023-05-02T09:46:06;99776.47;;;12.06;61.76
19576;BME280;41589;51.196;7.074;2023-05-02T09:57:48;99795.03;;;11.94;63.12
19576;BME280;41589;51.196;7.074;2023-05-02T10:02:52;99796.91;;;11.63;63.42
19576;BME280;41589;51.196;7.074;2023-05-02T10:07:53;99808.00;;;11.57;64.36
19576;BME280;41589;51.196;7.074;2023-05-02T10:12:56;99814.53;;;11.41;64.96
19576;BME280;41589;51.196;7.074;2023-05-02T10:18:17;99814.97;;;11.14;65.02
19576;BME280;41589;51.196;7.074;2023-05-02T10:23:38;99816.88;;;11.81;65.52
19576;BME280;41589;51.196;7.074;2023-05-02T10:28:49;99808.16;;;12.23;61.91
19576;BME280;41589;51.196;7.074;2023-05-02T10:33:51;99807.59;;;13.34;62.07
19576;BME280;41589;51.196;7.074;2023-05-02T10:39:08;99799.28;;;13.88;57.52
19576;BME280;41589;51.196;7.074;2023-05-02T10:44:09;99799.28;;;14.25;55.92
19576;BME280;41589;51.196;7.074;2023-05-02T10:49:11;99808.72;;;13.36;55.03
19576;BME280;41589;51.196;7.074;2023-05-02T10:59:48;99819.88;;;12.56;56.83
19576;BME280;41589;51.196;7.074;2023-05-02T11:05:01;99824.31;;;12.88;56.13
19576;BME280;41589;51.196;7.074;2023-05-02T11:10:25;99813.09;;;13.37;55.46
19576;BME280;41589;51.196;7.074;2023-05-02T11:20:27;99811.38;;;13.89;51.15
19576;BME280;41589;51.196;7.074;2023-05-02T11:25:34;99819.13;;;14.16;48.95
19576;BME280;41589;51.196;7.074;2023-05-02T11:30:43;99811.25;;;14.02;49.78
19576;BME280;41589;51.196;7.074;2023-05-02T11:35:52;99808.13;;;14.36;48.76
19576;BME280;41589;51.196;7.074;2023-05-02T11:41:01;99800.56;;;14.70;48.91
19576;BME280;41589;51.196;7.074;2023-05-02T11:46:13;99814.25;;;14.44;47.05
19576;BME280;41589;51.196;7.074;2023-05-02T11:51:21;99821.91;;;13.79;47.21
19576;BME280;41589;51.196;7.074;2023-05-02T11:56:27;99825.09;;;13.50;48.85
19576;BME280;41589;51.196;7.074;2023-05-02T12:01:50;99839.53;;;13.43;48.90
19576;BME280;41589;51.196;7.074;2023-05-02T12:07:11;99862.53;;;13.23;48.99
19576;BME280;41589;51.196;7.074;2023-05-02T12:12:30;99861.78;;;13.32;48.37
19576;BME280;41589;51.196;7.074;2023-05-02T12:18:45;99846.72;;;13.66;48.72
19576;BME280;41589;51.196;7.074;2023-05-02T12:23:49;99858.16;;;13.00;49.38
19576;BME280;41589;51.196;7.074;2023-05-02T12:28:55;99863.72;;;13.44;48.22
19576;BME280;41589;51.196;7.074;2023-05-02T12:33:57;99852.47;;;13.53;48.35
19576;BME280;41589;51.196;7.074;2023-05-02T12:39:05;99863.06;;;13.71;46.93
19576;BME280;41589;51.196;7.074;2023-05-02T12:44:34;99876.28;;;13.74;45.97
19576;BME280;41589;51.196;7.074;2023-05-02T12:55:25;99878.19;;;13.77;45.63
19576;BME280;41589;51.196;7.074;2023-05-02T13:00:28;99882.50;;;14.09;43.61
19576;BME280;41589;51.196;7.074;2023-05-02T13:05:35;99888.97;;;14.19;44.56
19576;BME280;41589;51.196;7.074;2023-05-02T13:11:02;99890.41;;;14.42;43.93
19576;BME280;41589;51.196;7.074;2023-05-02T13:16:16;99886.00;;;14.41;42.58
19576;BME280;41589;51.196;7.074;2023-05-02T13:21:20;99888.78;;;13.95;41.96
19576;BME280;41589;51.196;7.074;2023-05-02T13:26:23;99897.81;;;14.49;42.17
19576;BME280;41589;51.196;7.074;2023-05-02T13:31:24;99890.59;;;14.84;42.00
19576;BME280;41589;51.196;7.074;2023-05-02T13:36:24;99889.78;;;14.56;40.70
19576;BME280;41589;51.196;7.074;2023-05-02T13:41:28;99893.41;;;14.66;41.42
19576;BME280;41589;51.196;7.074;2023-05-02T13:46:38;99884.25;;;14.98;41.12
19576;BME280;41589;51.196;7.074;2023-05-02T13:51:44;99891.81;;;15.20;41.17
19576;BME280;41589;51.196;7.074;2023-05-02T13:56:47;99889.88;;;15.26;40.84
19576;BME280;41589;51.196;7.074;2023-05-02T14:02:00;99899.47;;;15.28;40.98
19576;BME280;41589;51.196;7.074;2023-05-02T14:07:08;99892.22;;;15.37;38.86
19576;BME280;41589;51.196;7.074;2023-05-02T14:12:14;99885.41;;;15.43;39.10
19576;BME280;41589;51.196;7.074;2023-05-02T14:17:21;99899.00;;;15.81;38.39
19576;BME280;41589;51.196;7.074;2023-05-02T14:22:37;99893.31;;;15.81;38.77
19576;BME280;41589;51.196;7.074;2023-05-02T14:27:38;99894.63;;;16.04;37.30
19576;BME280;41589;51.196;7.074;2023-05-02T14:33:20;99897.06;;;15.87;38.07
19576;BME280;41589;51.196;7.074;2023-05-02T14:38:20;99912.28;;;15.75;35.52
19576;BME280;41589;51.196;7.074;2023-05-02T14:43:21;99908.13;;;15.43;37.02
19576;BME280;41589;51.196;7.074;2023-05-02T14:48:21;99899.56;;;15.52;36.24
19576;BME280;41589;51.196;7.074;2023-05-02T14:53:21;99900.22;;;15.89;36.72
19576;BME280;41589;51.196;7.074;2023-05-02T14:58:22;99884.06;;;16.29;36.03
19576;BME280;41589;51.196;7.074;2023-05-02T15:03:22;99885.63;;;16.30;36.01
19576;BME280;41589;51.196;7.074;2023-05-02T15:08:22;99886.47;;;16.21;35.01
19576;BME280;41589;51.196;7.074;2023-05-02T15:13:23;99895.38;;;16.14;35.27
19576;BME280;41589;51.196;7.074;2023-05-02T15:18:23;99887.69;;;16.05;35.31
19576;BME280;41589;51.196;7.074;2023-05-02T15:23:23;99879.28;;;16.35;36.07
19576;BME280;41589;51.196;7.074;2023-05-02T15:28:24;99879.38;;;16.40;35.67
19576;BME280;41589;51.196;7.074;2023-05-02T15:33:24;99879.31;;;16.02;34.55
19576;BME280;41589;51.196;7.074;2023-05-02T15:38:25;99892.28;;;15.60;34.91
19576;BME280;41589;51.196;7.074;2023-05-02T15:43:26;99891.66;;;15.14;34.47
19576;BME280;41589;51.196;7.074;2023-05-02T15:48:30;99893.09;;;15.10;35.37
19576;BME280;41589;51.196;7.074;2023-05-02T15:53:32;99891.34;;;15.03;35.46
19576;BME280;41589;51.196;7.074;2023-05-02T15:58:34;99897.97;;;15.00;36.26
19576;BME280;41589;51.196;7.074;2023-05-02T16:03:34;99904.75;;;15.02;36.27
19576;BME280;41589;51.196;7.074;2023-05-02T16:08:34;99901.44;;;14.95;36.91
19576;BME280;41589;51.196;7.074;2023-05-02T16:13:35;99903.34;;;14.80;36.81
19576;BME280;41589;51.196;7.074;2023-05-02T16:18:35;99908.06;;;14.83;36.41
19576;BME280;41589;51.196;7.074;2023-05-02T16:23:36;99904.88;;;14.44;35.89
19576;BME280;41589;51.196;7.074;2023-05-02T16:28:36;99907.06;;;14.22;36.29
19576;BME280;41589;51.196;7.074;2023-05-02T16:33:37;99913.78;;;14.15;37.03
19576;BME280;41589;51.196;7.074;2023-05-02T16:38:38;99909.75;;;14.16;37.44
19576;BME280;41589;51.196;7.074;2023-05-02T16:43:38;99923.38;;;14.08;37.33
19576;BME280;41589;51.196;7.074;2023-05-02T16:48:38;99919.13;;;14.04;37.64
19576;BME280;41589;51.196;7.074;2023-05-02T16:53:39;99930.56;;;13.91;37.00
19576;BME280;41589;51.196;7.074;2023-05-02T16:58:39;99919.91;;;13.95;37.45
19576;BME280;41589;51.196;7.074;2023-05-02T17:03:40;99927.78;;;14.09;37.08
19576;BME280;41589;51.196;7.074;2023-05-02T17:08:40;99915.56;;;14.31;37.79
19576;BME280;41589;51.196;7.074;2023-05-02T17:13:40;99913.06;;;14.33;37.75
19576;BME280;41589;51.196;7.074;2023-05-02T17:18:42;99925.78;;;14.28;37.04
19576;BME280;41589;51.196;7.074;2023-05-02T17:23:43;99923.88;;;14.07;37.29
19576;BME280;41589;51.196;7.074;2023-05-02T17:28:43;99921.38;;;14.18;37.26
19576;BME280;41589;51.196;7.074;2023-05-02T17:33:45;99938.34;;;14.18;36.69
19576;BME280;41589;51.196;7.074;2023-05-02T17:38:46;99941.47;;;14.11;37.39
19576;BME280;41589;51.196;7.074;2023-05-02T17:43:47;99940.94;;;13.94;36.79
19576;BME280;41589;51.196;7.074;2023-05-02T17:48:47;99935.28;;;13.85;36.61
19576;BME280;41589;51.196;7.074;2023-05-02T17:53:51;99945.22;;;13.37;37.32
19576;BME280;41589;51.196;7.074;2023-05-02T17:58:51;99939.97;;;13.26;36.77
19576;BME280;41589;51.196;7.074;2023-05-02T18:03:52;99946.47;;;13.36;37.24
19576;BME280;41589;51.196;7.074;2023-05-02T18:08:53;99949.88;;;13.83;37.04
19576;BME280;41589;51.196;7.074;2023-05-02T18:13:53;99947.44;;;13.64;36.67
19576;BME280;41589;51.196;7.074;2023-05-02T18:18:54;99946.56;;;13.23;36.91
19576;BME280;41589;51.196;7.074;2023-05-02T18:23:55;99951.66;;;12.71;38.98
19576;BME280;41589;51.196;7.074;2023-05-02T18:28:58;99960.00;;;12.75;38.98
19576;BME280;41589;51.196;7.074;2023-05-02T18:33:58;99966.31;;;12.79;39.02
19576;BME280;41589;51.196;7.074;2023-05-02T18:38:58;99971.06;;;12.82;38.66
19576;BME280;41589;51.196;7.074;2023-05-02T18:43:59;99971.50;;;12.46;39.47
19576;BME280;41589;51.196;7.074;2023-05-02T18:48:59;99973.06;;;12.34;39.76
19576;BME280;41589;51.196;7.074;2023-05-02T18:54:00;99970.06;;;12.29;39.77
19576;BME280;41589;51.196;7.074;2023-05-02T18:59:00;99978.31;;;12.10;40.62
19576;BME280;41589;51.196;7.074;2023-05-02T19:04:01;99985.41;;;12.02;40.75
19576;BME280;41589;51.196;7.074;2023-05-02T19:09:02;99982.03;;;11.95;41.19
19576;BME280;41589;51.196;7.074;2023-05-02T19:14:03;99991.06;;;11.77;40.86
19576;BME280;41589;51.196;7.074;2023-05-02T19:19:05;99983.47;;;11.61;41.50
19576;BME280;41589;51.196;7.074;2023-05-02T19:24:06;100002.97;;;11.43;41.74
19576;BME280;41589;51.196;7.074;2023-05-02T19:29:06;100010.44;;;11.20;42.32
19576;BME280;41589;51.196;7.074;2023-05-02T19:34:06;100018.28;;;11.42;41.93
19576;BME280;41589;51.196;7.074;2023-05-02T19:39:07;100013.06;;;11.27;41.93
19576;BME280;41589;51.196;7.074;2023-05-02T19:44:07;100022.66;;;11.30;42.23
19576;BME280;41589;51.196;7.074;2023-05-02T19:49:07;100031.34;;;11.07;42.57
19576;BME280;41589;51.196;7.074;2023-05-02T19:54:08;100027.84;;;11.03;43.01
19576;BME280;41589;51.196;7.074;2023-05-02T19:59:08;100034.66;;;11.18;42.50
19576;BME280;41589;51.196;7.074;2023-05-02T20:04:09;100039.34;;;11.08;42.60
19576;BME280;41589;51.196;7.074;2023-05-02T20:09:09;100039.13;;;11.03;42.59
19576;BME280;41589;51.196;7.074;2023-05-02T20:14:10;100049.22;;;11.00;42.76
19576;BME280;41589;51.196;7.074;2023-05-02T20:19:10;100047.69;;;10.83;42.85
19576;BME280;41589;51.196;7.074;2023-05-02T20:24:11;100037.91;;;10.71;42.91
19576;BME280;41589;51.196;7.074;2023-05-02T20:29:11;100052.88;;;10.68;43.11
19576;BME280;41589;51.196;7.074;2023-05-02T20:34:11;100048.75;;;10.56;43.19
19576;BME280;41589;51.196;7.074;2023-05-02T20:39:12;100060.13;;;10.53;43.59
19576;BME280;41589;51.196;7.074;2023-05-02T20:44:13;100057.47;;;10.46;43.59
19576;BME280;41589;51.196;7.074;2023-05-02T20:49:16;100075.50;;;10.32;43.79
19576;BME280;41589;51.196;7.074;2023-05-02T20:54:17;100073.19;;;10.10;44.49
19576;BME280;41589;51.196;7.074;2023-05-02T20:59:17;100069.28;;;10.04;44.79
19576;BME280;41589;51.196;7.074;2023-05-02T21:04:18;100068.16;;;10.02;44.81
19576;BME280;41589;51.196;7.074;2023-05-02T21:09:18;100078.06;;;9.90;45.13
19576;BME280;41589;51.196;7.074;2023-05-02T21:14:19;100077.72;;;9.88;44.99
19576;BME280;41589;51.196;7.074;2023-05-02T21:19:19;100076.38;;;9.73;45.21
19576;BME280;41589;51.196;7.074;2023-05-02T21:24:20;100079.91;;;9.77;45.10
19576;BME280;41589;51.196;7.074;2023-05-02T21:29:21;100075.16;;;9.74;45.49
19576;BME280;41589;51.196;7.074;2023-05-02T21:34:21;100076.81;;;9.71;45.31
19576;BME280;41589;51.196;7.074;2023-05-02T21:39:22;100082.25;;;9.62;45.32
19576;BME280;41589;51.196;7.074;2023-05-02T21:44:22;100083.69;;;9.50;45.84
19576;BME280;41589;51.196;7.074;2023-05-02T21:49:22;100085.84;;;9.43;46.15
19576;BME280;41589;51.196;7.074;2023-05-02T21:54:23;100082.81;;;9.34;46.32
19576;BME280;41589;51.196;7.074;2023-05-02T21:59:23;100093.41;;;9.26;46.60
19576;BME280;41589;51.196;7.074;2023-05-02T22:04:23;100094.69;;;9.41;46.49
19576;BME280;41589;51.196;7.074;2023-05-02T22:09:24;100096.22;;;9.26;46.76
19576;BME280;41589;51.196;7.074;2023-05-02T22:14:25;100103.03;;;9.25;46.42
19576;BME280;41589;51.196;7.074;2023-05-02T22:19:25;100091.78;;;9.25;47.09
19576;BME280;41589;51.196;7.074;2023-05-02T22:24:26;100095.78;;;9.27;47.07
19576;BME280;41589;51.196;7.074;2023-05-02T22:29:28;100109.88;;;9.24;47.05
19576;BME280;41589;51.196;7.074;2023-05-02T22:34:28;100110.03;;;9.17;47.00
19576;BME280;41589;51.196;7.074;2023-05-02T22:39:28;100097.38;;;9.28;46.87
19576;BME280;41589;51.196;7.074;2023-05-02T22:44:29;100103.66;;;9.13;46.87
19576;BME280;41589;51.196;7.074;2023-05-02T22:49:30;100097.69;;;9.11;46.95
19576;BME280;41589;51.196;7.074;2023-05-02T22:54:32;100108.56;;;9.09;47.14
19576;BME280;41589;51.196;7.074;2023-05-02T22:59:32;100109.00;;;9.07;46.81
19576;BME280;41589;51.196;7.074;2023-05-02T23:04:32;100107.47;;;9.03;47.13
19576;BME280;41589;51.196;7.074;2023-05-02T23:09:33;100101.19;;;8.95;46.96
19576;BME280;41589;51.196;7.074;2023-05-02T23:14:33;100099.59;;;8.94;47.12
19576;BME280;41589;51.196;7.074;2023-05-02T23:19:33;100085.34;;;8.85;46.99
19576;BME280;41589;51.196;7.074;2023-05-02T23:24:34;100091.44;;;8.80;47.12
19576;BME280;41589;51.196;7.074;2023-05-02T23:29:34;100095.13;;;8.73;47.27
19576;BME280;41589;51.196;7.074;2023-05-02T23:34:35;100090.38;;;8.70;47.51
19576;BME280;41589;51.196;7.074;2023-05-02T23:39:36;100089.66;;;8.66;47.30
19576;BME280;41589;51.196;7.074;2023-05-02T23:44:36;100083.56;;;8.71;47.22
19576;BME280;41589;51.196;7.074;2023-05-02T23:49:37;100073.13;;;8.72;47.17
19576;BME280;41589;51.196;7.074;2023-05-02T23:54:37;100086.72;;;8.73;47.12
19576;BME280;41589;51.196;7.074;2023-05-02T23:59:37;100089.22;;;8.91;46.83
